ADDS METAR Data INFO
IDs: Format: Raw Decoded Include TAF

Data at: 0044 UTC 23 Oct 2017

KTPH 222356Z AUTO 31010KT 10SM CLR 22/M08 A3041 RMK AO2 SLP262 T02221078 10233 20156 56002
KTPH 222256Z AUTO 32015KT 10SM CLR 23/M07 A3041 RMK AO2 SLP260 T02281072
KTPH 222156Z AUTO 31014G23KT 10SM CLR 23/M07 A3040 RMK AO2 SLP255 T02331067
KTPH 222056Z AUTO 33013KT 10SM CLR 22/M09 A3041 RMK AO2 SLP261 T02221089 58018
KTPH 221956Z AUTO 32008KT 10SM CLR 21/M07 A3043 RMK AO2 SLP268 T02111072
KTPH 221856Z AUTO 17007KT 10SM CLR 18/M01 A3046 RMK AO2 SLP283 T01781011
KTPH 221756Z AUTO 00000KT 10SM CLR 16/M01 A3048 RMK AO2 SLP288 T01561011 10156 20011 50005
KTPH 221656Z AUTO 00000KT 10SM CLR 11/M02 A3048 RMK AO2 SLP298 T01061022
KTPH 221556Z AUTO 02004KT 10SM CLR 07/M03 A3047 RMK AO2 SLP300 T00721033
KTPH 221456Z AUTO 01006KT 10SM CLR 02/M05 A3046 RMK AO2 SLP299 T00221050 53013
KTPH 221356Z AUTO 36007KT 10SM CLR 02/M04 A3043 RMK AO2 SLP290 T00171044
KTPH 221256Z AUTO 35007KT 10SM CLR 03/M04 A3042 RMK AO2 SLP283 T00281039
KTPH 221156Z AUTO 36010KT 10SM CLR 03/M04 A3041 RMK AO2 SLP274 T00331039 10089 20033 53008
KTPH 221056Z AUTO 35009KT 10SM CLR 03/M04 A3039 RMK AO2 SLP268 T00331039
KTPH 220956Z AUTO 02007KT 10SM CLR 04/M04 A3039 RMK AO2 SLP264 T00441039
KTPH 220856Z AUTO 36007KT 10SM CLR 04/M04 A3039 RMK AO2 SLP265 T00441039 51002
KTPH 220756Z AUTO 01008KT 10SM CLR 05/M04 A3039 RMK AO2 SLP267 T00501039 401671033
KTPH 220656Z AUTO 35008KT 10SM CLR 06/M03 A3038 RMK AO2 SLP270 T00611033
KTPH 220556Z AUTO 36011KT 10SM CLR 09/M02 A3038 RMK AO2 SLP267 T00891022 10161 20083 53019
KTPH 220456Z AUTO 35007KT 10SM CLR 09/M02 A3036 RMK AO2 SLP261 T00891017
KTPH 220356Z AUTO 11005KT 10SM CLR 11/M01 A3033 RMK AO2 SLP254 T01061006
KTPH 220256Z AUTO 03006KT 10SM CLR 13/00 A3031 RMK AO2 SLP251 T01330000 53014
KTPH 220156Z AUTO 34009KT 10SM CLR 13/M02 A3028 RMK AO2 SLP247 T01331022
KTPH 220056Z AUTO 30009KT 10SM CLR 14/M02 A3026 RMK AO2 SLP236 T01441017
KTPH 212356Z AUTO 32014KT 10SM CLR 16/M03 A3026 RMK AO2 SLP233 T01611028 10167 20089 53001
KTPH 212256Z AUTO 30013G23KT 10SM CLR 16/M05 A3026 RMK AO2 SLP228 T01611050
KTPH 212156Z AUTO 31010KT 10SM CLR 16/M06 A3025 RMK AO2 SLP224 T01611061
KTPH 212056Z AUTO 32011KT 10SM CLR 15/M07 A3026 RMK AO2 WSHFT 2017 SLP227 T01501072 58003
KTPH 212037Z AUTO 31012KT 10SM CLR 14/M08 A3026 RMK AO2 WSHFT 2017 T01441083
KTPH 211956Z AUTO 36006KT 10SM CLR 14/M10 A3026 RMK AO2 SLP227 T01391100
KTPH 211856Z AUTO VRB03KT 10SM CLR 11/M08 A3028 RMK AO2 SLP240 T01061083
KTPH 211756Z AUTO VRB03KT 10SM CLR 09/M08 A3027 RMK AO2 SLP237 T00891078 10089 21033 51012
KTPH 211656Z AUTO 33004KT 10SM CLR 07/M08 A3027 RMK AO2 SLP235 T00721078
KTPH 211556Z AUTO 01010KT 10SM CLR 04/M08 A3025 RMK AO2 SLP235 T00441083
KTPH 211456Z AUTO 01011KT 10SM CLR M01/M11 A3023 RMK AO2 SLP236 T10061106 53020
KTPH 211356Z AUTO 33006KT 10SM CLR M03/M11 A3020 RMK AO2 SLP229 T10281111
KTPH 211256Z AUTO 34007KT 10SM CLR M02/M11 A3018 RMK AO2 SLP217 T10221111